Airfield :







YOU CAN JOIN US ON...

 
LOGIN :

Register | Disclaimer

   EN    FR    IT 

 









Legend :    VFR   Marginal VFR   IFR   Intensive IFR   Very Intensive IFR
Visi :
Ceiling :
>= 8 km
>= 3000ft
5 to 8 km
1000 to 3000 ft
1500m to 5 km
500 to 1000 ft
800 to 1500m
200 to 500 ft
< 800m
< 200 ft
Symbols :   Thunderstorms  Fog  Heavy snow  Heavy precipitations  Wind > 20 kt






- Airport Elevation : 1270 ft
- IATA code : YMT


CYMT - Chapais

CURRENT METAR :
  • 120315Z AUTO 29012G25KT 7SM -SN FEW017 BKN022 BKN110 M20/M24 A2999 RMK PRESRR SLP203

EXPIRED METARs :
  • 120301Z AUTO 29014G22KT 3SM -SN FEW016 BKN035 OVC110 M20/M24 A2997 RMK PRESRR SLP196
  • 120258Z AUTO 28014G22KT 2SM -SN FEW016 BKN035 OVC110 M20/M23 A2997 RMK VIS VRB 1 1/4-3 PRESRR SLP197
  • 120248Z AUTO 29009G20KT 2 1/4SM -SN OVC037 M19/M23 A2996 RMK SLP194
  • 120202Z AUTO 28011G22KT 2 1/4SM -SN SCT020 OVC040 M18/M21 A2993 RMK PRESRR SLP182
  • 120153Z AUTO 28011G22KT 250V310 3SM -SN FEW017 OVC042 M18/M21 A2992 RMK PRESRR SLP179
  • 120135Z AUTO 28013G23KT 2SM -SN SCT017 OVC036 M17/M20 A2990 RMK VIS VRB 1 1/2-3 PRESRR SLP173
  • 120125Z AUTO 28013G22KT 1 3/4SM -SN BKN017 OVC036 M16/M20 A2989 RMK PRESRR SLP169
  • 120118Z AUTO 27013G18KT 2 1/4SM -SN BKN017 OVC045 M16/M19 A2988 RMK PRESRR SLP166
  • 120108Z AUTO 27010G18KT 2 1/2SM -SN SCT017 BKN045 M16/M18 A2987 RMK SLP161
  • 120048Z AUTO 26011G18KT 6SM -SN BKN037 M15/M18 A2986 RMK SLP157
  • 120028Z AUTO 24010G17KT 3SM -SN FEW025 BKN039 OVC095 M15/M17 A2985 RMK SLP153

Expired Forecast.



MET'MAP, your aeronautical weather chart ! - Copyright ORBIFLY December 2007 - Disclaimer

ORBIFLY MET'MAP TEAM :

Programming & Development : Alexandra Zaïnal
Concept & original design : Baudouin d'Aumeries
Assistance for programming : Marc-Olivier Méhu
Technical & hardware support : Manuel Goepfert

Contact : metmap@orbifly.com




SOURCES & CREDITS :

   NOAA